Time;durP1;ratioP1;P1;durP2;ratioP2;P2;SDS_P1;SDS_P2;PMS_P1;PMS_P2;Temp;Humidity;BMP_temperature;BMP_pressure;BME280_temperature;BME280_humidity;BME280_pressure;Samples;Min_cycle;Max_cycle;Signal;HPM_P1;HPM_P2
2021/12/19 00:01:33;;;;;;;5.47;2.58;;;7.20;99.90;;;;;;5093546;28;20043;-80
2021/12/19 00:04:20;;;;;;;4.97;2.03;;;7.90;99.90;;;;;;5093730;28;20087;-80
2021/12/19 00:09:43;;;;;;;7.55;2.28;;;8.80;99.90;;;;;;4995103;28;20552;-82
2021/12/19 00:12:09;;;;;;;3.80;1.70;;;7.10;99.90;;;;;;4995036;28;20189;-80
2021/12/19 00:14:35;;;;;;;7.53;1.73;;;7.10;99.90;;;;;;5010760;28;20390;-80
2021/12/19 00:17:00;;;;;;;5.03;1.67;;;7.20;99.90;;;;;;5011684;28;20046;-81
2021/12/19 00:19:26;;;;;;;5.32;3.33;;;7.10;99.90;;;;;;4994929;28;20053;-79
2021/12/19 00:21:52;;;;;;;2.30;1.05;;;7.60;99.90;;;;;;4995133;28;20049;-80
2021/12/19 00:24:18;;;;;;;5.45;1.38;;;7.10;99.90;;;;;;5011518;28;20049;-80
2021/12/19 00:26:44;;;;;;;;;;;8.80;99.90;;;;;;5011779;28;20456;-80
2021/12/19 00:29:10;;;;;;;4.53;1.42;;;7.10;99.90;;;;;;4995348;28;19926;-79
2021/12/19 00:31:37;;;;;;;3.13;1.08;;;7.10;99.90;;;;;;4995047;28;20120;-80
2021/12/19 00:34:03;;;;;;;4.72;1.83;;;8.20;99.90;;;;;;5011408;28;20050;-80
2021/12/19 00:36:29;;;;;;;4.20;1.13;;;7.60;99.90;;;;;;5011423;28;20499;-80
2021/12/19 00:38:56;;;;;;;5.13;1.50;;;7.10;99.90;;;;;;5011263;28;20057;-79
2021/12/19 00:41:22;;;;;;;3.55;1.65;;;7.10;99.90;;;;;;5011276;28;20042;-79
2021/12/19 00:43:55;;;;;;;4.05;1.35;;;8.70;99.90;;;;;;5011348;28;20107;-80
2021/12/19 00:46:23;;;;;;;7.28;1.83;;;7.10;99.90;;;;;;5088408;28;20052;-80
2021/12/19 00:48:53;;;;;;;5.90;2.40;;;8.00;99.90;;;;;;5093335;28;20063;-80
2021/12/19 00:51:22;;;;;;;4.72;2.28;;;7.10;99.90;;;;;;5075334;28;20108;-80
2021/12/19 00:53:48;;;;;;;7.22;2.63;;;7.10;99.90;;;;;;5093140;28;20474;-80
2021/12/19 00:56:15;;;;;;;9.07;2.85;;;7.30;99.90;;;;;;5093232;28;20044;-81
2021/12/19 00:58:41;;;;;;;;;;;8.40;99.90;;;;;;5093790;28;20051;-81
2021/12/19 01:01:08;;;;;;;8.25;2.83;;;8.70;99.90;;;;;;5093144;28;19920;-80
2021/12/19 01:03:34;;;;;;;7.75;3.08;;;7.20;99.90;;;;;;5093180;28;20051;-80
2021/12/19 01:06:00;;;;;;;;;;;7.20;99.90;;;;;;5093450;28;20075;-81
2021/12/19 01:08:26;;;;;;;11.43;5.32;;;7.50;99.90;;;;;;5075031;28;19982;-80
2021/12/19 01:10:53;;;;;;;11.15;4.82;;;7.10;99.90;;;;;;5093257;28;20090;-80
2021/12/19 01:13:18;;;;;;;;;;;7.20;99.90;;;;;;5075774;28;20184;-80
2021/12/19 01:15:45;;;;;;;15.45;5.15;;;7.20;99.90;;;;;;5093067;28;20039;-80
2021/12/19 01:18:11;;;;;;;13.30;6.05;;;7.20;99.90;;;;;;5092971;28;20048;-80
2021/12/19 01:20:38;;;;;;;15.07;6.47;;;7.20;99.90;;;;;;5092930;28;20406;-81
2021/12/19 01:23:05;;;;;;;11.45;6.25;;;7.20;99.90;;;;;;5092786;28;20067;-81
2021/12/19 01:25:31;;;;;;;17.45;7.85;;;7.20;99.90;;;;;;5075390;28;20051;-82
2021/12/19 01:27:57;;;;;;;13.32;6.72;;;8.70;99.90;;;;;;5096927;28;20050;-81
2021/12/19 01:30:23;;;;;;;;;;;7.40;99.90;;;;;;5079531;28;20371;-81
2021/12/19 01:32:50;;;;;;;17.17;7.53;;;7.30;99.90;;;;;;5096925;28;19927;-82
2021/12/19 01:35:16;;;;;;;;;;;7.20;99.90;;;;;;5097173;28;20052;-80
2021/12/19 01:37:42;;;;;;;16.65;7.47;;;7.30;99.90;;;;;;5096486;28;19920;-80
2021/12/19 01:40:11;;;;;;;13.25;6.57;;;8.50;99.90;;;;;;5096556;28;20048;-81
2021/12/19 01:42:40;;;;;;;12.35;5.97;;;7.30;99.90;;;;;;5096637;28;20036;-80
2021/12/19 01:45:08;;;;;;;8.98;4.90;;;7.30;99.90;;;;;;5078818;28;20363;-82
2021/12/19 01:47:34;;;;;;;9.02;4.50;;;7.30;99.90;;;;;;5096664;28;20042;-81
2021/12/19 01:50:01;;;;;;;14.55;5.40;;;7.80;99.90;;;;;;5077917;28;20449;-80
2021/12/19 01:52:28;;;;;;;8.23;4.10;;;7.30;99.90;;;;;;5096194;28;20491;-79
2021/12/19 01:54:55;;;;;;;9.02;4.22;;;8.10;99.90;;;;;;5096514;28;20055;-80
2021/12/19 01:57:24;;;;;;;9.55;3.45;;;7.30;99.90;;;;;;5078502;28;20040;-80
2021/12/19 01:59:50;;;;;;;9.07;2.95;;;7.30;99.90;;;;;;5078533;28;20063;-80
2021/12/19 02:02:16;;;;;;;5.72;2.30;;;7.30;99.90;;;;;;5078161;28;20043;-82
2021/12/19 02:04:43;;;;;;;4.57;1.80;;;8.00;99.90;;;;;;5096139;28;20052;-80
2021/12/19 02:07:10;;;;;;;5.28;1.50;;;7.40;99.90;;;;;;5077961;28;20051;-82
2021/12/19 02:09:36;;;;;;;4.40;1.80;;;7.10;99.90;;;;;;5078232;28;20044;-79
2021/12/19 02:12:03;;;;;;;4.80;1.65;;;7.10;99.90;;;;;;5096152;28;20453;-79
2021/12/19 02:14:29;;;;;;;5.38;1.52;;;7.10;99.90;;;;;;5074266;28;20114;-83
2021/12/19 02:16:55;;;;;;;2.33;0.95;;;7.10;99.90;;;;;;5074690;28;20056;-80
2021/12/19 02:19:22;;;;;;;1.38;0.60;;;8.00;99.90;;;;;;5075750;28;20403;-81
2021/12/19 02:21:49;;;;;;;2.65;0.85;;;8.00;99.90;;;;;;5075491;28;20109;-80
2021/12/19 02:24:15;;;;;;;2.17;0.40;;;7.00;99.90;;;;;;5075503;28;20048;-80
2021/12/19 02:26:41;;;;;;;0.90;0.28;;;7.00;99.90;;;;;;5075579;28;20136;-80
2021/12/19 02:29:08;;;;;;;3.13;0.25;;;8.10;99.90;;;;;;5075602;28;20076;-79
2021/12/19 02:31:34;;;;;;;0.52;0.30;;;7.60;99.90;;;;;;5075448;28;20036;-79
2021/12/19 02:36:59;;;;;;;0.50;0.20;;;8.40;99.90;;;;;;5074832;28;20045;-81
2021/12/19 02:50:08;;;;;;;5.30;0.60;;;7.90;99.90;;;;;;5075166;28;20076;-81
2021/12/19 02:52:37;;;;;;;2.28;0.40;;;6.80;99.90;;;;;;5075022;28;20683;-79
2021/12/19 02:55:04;;;;;;;1.70;0.60;;;6.80;99.90;;;;;;5075055;28;20144;-82
2021/12/19 02:57:31;;;;;;;0.55;0.30;;;6.70;99.90;;;;;;5074724;28;20506;-79
2021/12/19 02:59:57;;;;;;;2.75;0.70;;;6.70;99.90;;;;;;5075049;28;20087;-82
2021/12/19 03:02:22;;;;;;;1.33;0.65;;;6.70;99.90;;;;;;5073618;28;20110;-81
2021/12/19 03:04:57;;;;;;;1.35;0.38;;;6.60;99.90;;;;;;5074921;28;20154;-80
2021/12/19 03:07:24;;;;;;;1.48;0.40;;;7.20;99.90;;;;;;5074688;28;20125;-82
2021/12/19 03:12:59;;;;;;;3.22;0.75;;;6.60;99.90;;;;;;5073551;28;20491;-80
2021/12/19 03:18:10;;;;;;;4.88;1.80;;;6.60;99.90;;;;;;5074363;28;20511;-79
2021/12/19 03:20:37;;;;;;;5.55;2.47;;;6.60;99.90;;;;;;5073417;28;20040;-80
2021/12/19 03:23:04;;;;;;;6.65;2.33;;;6.60;99.90;;;;;;5073524;28;20040;-80
2021/12/19 03:25:32;;;;;;;7.10;3.40;;;6.60;99.90;;;;;;5074494;28;20101;-80
2021/12/19 03:27:58;;;;;;;6.75;2.42;;;6.60;99.90;;;;;;5074499;28;20052;-80
2021/12/19 03:30:24;;;;;;;;;;;6.70;99.90;;;;;;5073539;28;20052;-82
2021/12/19 03:32:50;;;;;;;7.43;2.47;;;6.70;99.90;;;;;;5074319;28;19970;-81
2021/12/19 03:35:16;;;;;;;11.32;2.47;;;6.70;99.90;;;;;;5072617;28;20056;-81
2021/12/19 03:37:43;;;;;;;7.45;2.40;;;6.70;99.90;;;;;;5072983;28;20048;-81
2021/12/19 03:40:11;;;;;;;;;;;7.40;99.90;;;;;;5074483;28;20499;-79
2021/12/19 03:42:48;;;;;;;3.92;2.25;;;6.70;99.90;;;;;;5072910;28;19928;-80
2021/12/19 03:45:17;;;;;;;7.20;1.45;;;6.70;99.90;;;;;;5074003;28;20052;-80
2021/12/19 03:47:44;;;;;;;3.38;1.45;;;7.30;99.90;;;;;;5073970;28;20090;-81
2021/12/19 03:50:11;;;;;;;;;;;6.70;99.90;;;;;;5073578;28;20109;-80
2021/12/19 03:52:37;;;;;;;4.82;1.40;;;7.60;99.90;;;;;;5072928;28;19928;-82
2021/12/19 03:55:04;;;;;;;9.10;2.22;;;6.70;99.90;;;;;;5073945;28;20041;-79
2021/12/19 03:57:30;;;;;;;3.13;1.75;;;6.70;99.90;;;;;;5073821;28;20052;-80
2021/12/19 03:59:55;;;;;;;4.68;2.55;;;6.70;99.90;;;;;;5073775;28;20044;-80
2021/12/19 04:02:26;;;;;;;7.20;2.53;;;8.30;99.90;;;;;;5055334;28;20049;-81
2021/12/19 04:04:54;;;;;;;4.40;2.58;;;6.70;99.90;;;;;;5073583;28;20048;-80
2021/12/19 04:07:21;;;;;;;5.18;2.67;;;6.70;99.90;;;;;;5073636;28;20117;-80
2021/12/19 04:09:47;;;;;;;6.63;2.72;;;6.80;99.90;;;;;;5073738;28;20088;-80
2021/12/19 04:12:13;;;;;;;6.05;2.20;;;7.40;99.90;;;;;;5073665;28;20139;-80
2021/12/19 04:14:39;;;;;;;6.63;3.33;;;6.70;99.90;;;;;;5090983;28;20470;-80
2021/12/19 04:17:05;;;;;;;10.73;3.00;;;7.30;99.90;;;;;;5093709;28;20087;-79
2021/12/19 04:19:32;;;;;;;7.60;3.03;;;8.00;99.90;;;;;;5075574;28;20047;-81
2021/12/19 04:21:59;;;;;;;8.60;3.05;;;6.80;99.90;;;;;;5075422;28;20051;-80
2021/12/19 04:24:25;;;;;;;7.00;2.72;;;7.00;99.90;;;;;;5093690;28;20127;-79
2021/12/19 04:26:51;;;;;;;8.75;2.17;;;7.90;99.90;;;;;;5093474;28;20044;-80
2021/12/19 04:29:17;;;;;;;7.40;2.45;;;6.80;99.90;;;;;;5093449;28;20094;-80
2021/12/19 04:31:42;;;;;;;11.13;3.10;;;7.40;99.90;;;;;;5093478;28;20047;-80
2021/12/19 04:34:08;;;;;;;14.05;3.13;;;6.80;99.90;;;;;;5109459;28;20044;-80
2021/12/19 04:36:39;;;;;;;13.88;2.95;;;6.90;99.90;;;;;;5093244;28;20048;-79
2021/12/19 05:00:55;;;;;;;14.20;4.38;;;6.90;99.90;;;;;;4973710;28;20050;-80
2021/12/19 05:03:42;;;;;;;14.13;4.22;;;6.90;99.90;;;;;;4976063;28;20137;-80
2021/12/19 05:06:45;;;;;;;12.30;4.00;;;7.10;99.90;;;;;;4975915;28;20054;-79
2021/12/19 05:14:38;;;;;;;7.80;4.13;;;6.90;99.90;;;;;;4959579;28;20055;-79
2021/12/19 05:17:08;;;;;;;16.10;4.90;;;6.90;99.90;;;;;;4975814;28;20538;-79
2021/12/19 05:20:11;;;;;;;10.32;4.13;;;8.20;99.90;;;;;;4975831;28;20556;-79
2021/12/19 05:22:41;;;;;;;10.82;4.85;;;6.90;99.90;;;;;;4975477;28;20050;-79
2021/12/19 05:25:14;;;;;;;14.80;5.03;;;8.50;99.90;;;;;;4990692;28;20068;-80
2021/12/19 05:27:48;;;;;;;11.90;4.95;;;6.90;99.90;;;;;;5014626;28;20516;-80
2021/12/19 05:30:14;;;;;;;15.27;4.95;;;8.40;99.90;;;;;;5014668;28;20046;-80
2021/12/19 05:32:41;;;;;;;;;;;6.90;99.90;;;;;;5066164;28;20113;-80
2021/12/19 05:35:09;;;;;;;10.93;4.28;;;7.20;99.90;;;;;;5096617;28;20383;-81
2021/12/19 05:45:48;;;;;;;14.43;5.95;;;7.00;99.90;;;;;;5096370;28;20047;-79
2021/12/19 05:48:14;;;;;;;16.02;5.80;;;6.90;99.90;;;;;;5096748;28;20048;-80
2021/12/19 05:50:39;;;;;;;15.15;5.63;;;6.90;99.90;;;;;;5096558;28;20087;-82
2021/12/19 05:53:05;;;;;;;14.57;4.88;;;8.40;99.90;;;;;;5078306;28;20055;-79
2021/12/19 05:55:31;;;;;;;19.30;7.05;;;8.60;99.90;;;;;;5078587;28;20040;-79
2021/12/19 05:57:57;;;;;;;19.70;6.80;;;6.90;99.90;;;;;;5096199;28;20145;-83
2021/12/19 06:00:24;;;;;;;20.55;6.28;;;6.90;99.90;;;;;;5078050;28;20483;-82
2021/12/19 06:02:50;;;;;;;17.17;5.65;;;6.90;99.90;;;;;;5096287;28;20082;-80
2021/12/19 06:05:16;;;;;;;13.57;5.65;;;6.90;99.90;;;;;;5096350;28;20120;-79
2021/12/19 06:07:43;;;;;;;14.52;5.47;;;7.70;99.90;;;;;;5078284;28;20048;-81
2021/12/19 06:10:09;;;;;;;16.05;7.10;;;7.00;99.90;;;;;;5078165;28;20056;-80
2021/12/19 06:12:36;;;;;;;;;;;7.00;99.90;;;;;;5095573;28;20491;-79
2021/12/19 06:15:03;;;;;;;19.80;6.72;;;5.60;99.90;;;;;;5095833;28;20004;-78
2021/12/19 06:17:28;;;;;;;13.60;5.05;;;6.90;99.90;;;;;;5078295;28;20083;-79
2021/12/19 06:19:54;;;;;;;16.35;6.18;;;6.90;99.90;;;;;;5077941;28;20083;-80
2021/12/19 06:22:20;;;;;;;10.60;5.40;;;8.10;99.90;;;;;;5095761;28;20044;-80
2021/12/19 06:24:45;;;;;;;16.30;6.32;;;7.10;99.90;;;;;;5077768;28;20054;-79
2021/12/19 06:27:11;;;;;;;18.88;6.63;;;7.00;99.90;;;;;;5095609;28;20077;-80
2021/12/19 06:29:37;;;;;;;15.88;6.63;;;6.90;99.90;;;;;;5095665;28;20123;-79
2021/12/19 06:32:03;;;;;;;22.35;7.05;;;6.90;99.90;;;;;;5095585;28;20048;-79
2021/12/19 06:34:28;;;;;;;18.25;6.07;;;6.90;99.90;;;;;;5095833;28;20048;-79
2021/12/19 06:36:54;;;;;;;15.43;4.47;;;6.90;99.90;;;;;;5095635;28;20048;-79
2021/12/19 06:39:21;;;;;;;13.90;4.40;;;7.90;99.90;;;;;;5095506;28;20043;-79
2021/12/19 06:41:47;;;;;;;12.93;4.20;;;7.20;99.90;;;;;;5077492;28;20507;-81
2021/12/19 06:44:13;;;;;;;13.35;5.38;;;7.50;99.90;;;;;;5077623;28;20433;-79
2021/12/19 06:46:39;;;;;;;13.35;4.90;;;6.90;99.90;;;;;;5095269;28;20048;-81
2021/12/19 06:49:05;;;;;;;11.40;5.18;;;7.50;99.90;;;;;;5095565;28;20058;-80
2021/12/19 06:51:32;;;;;;;16.55;4.60;;;6.90;99.90;;;;;;5095291;28;20040;-82
2021/12/19 06:53:58;;;;;;;12.43;4.53;;;7.70;99.90;;;;;;5076901;28;20063;-80
2021/12/19 06:56:25;;;;;;;11.60;4.28;;;7.10;99.90;;;;;;5095351;28;20044;-80
2021/12/19 06:58:50;;;;;;;9.35;3.38;;;6.80;99.90;;;;;;5077300;28;20134;-79
2021/12/19 07:01:16;;;;;;;13.88;3.45;;;7.40;99.90;;;;;;5094882;28;20058;-79
2021/12/19 07:03:43;;;;;;;7.45;2.42;;;6.80;99.90;;;;;;5095225;28;20136;-82
2021/12/19 07:06:09;;;;;;;7.32;2.80;;;6.80;99.90;;;;;;5094940;28;20490;-79
2021/12/19 07:08:35;;;;;;;7.50;3.25;;;6.80;99.90;;;;;;5076994;28;20055;-79
2021/12/19 07:11:01;;;;;;;9.98;2.78;;;7.70;99.90;;;;;;5077108;28;20056;-83
2021/12/19 07:13:27;;;;;;;26.05;2.35;;;6.80;99.90;;;;;;5076864;28;20059;-82
2021/12/19 07:15:54;;;;;;;9.98;1.80;;;6.80;99.90;;;;;;5094611;28;20554;-79
2021/12/19 07:18:20;;;;;;;7.43;2.17;;;8.50;99.90;;;;;;5095002;28;20122;-82
2021/12/19 07:20:46;;;;;;;8.40;2.47;;;7.60;99.90;;;;;;5094777;28;20047;-80
2021/12/19 07:23:14;;;;;;;6.53;1.77;;;6.70;99.90;;;;;;5094406;28;20040;-80
2021/12/19 07:25:40;;;;;;;6.70;1.85;;;7.50;99.90;;;;;;5094088;28;20050;-80
2021/12/19 07:28:07;;;;;;;4.40;1.58;;;8.30;99.90;;;;;;5094618;28;20554;-79
2021/12/19 07:30:36;;;;;;;8.52;1.92;;;6.70;99.90;;;;;;5094469;28;20059;-81
2021/12/19 07:33:03;;;;;;;4.00;1.85;;;6.70;99.90;;;;;;5094617;28;20051;-79
2021/12/19 07:35:35;;;;;;;5.65;1.50;;;6.70;99.90;;;;;;5076691;28;20051;-78
2021/12/19 07:38:03;;;;;;;8.52;1.65;;;6.70;99.90;;;;;;5094376;28;20143;-79
2021/12/19 07:40:35;;;;;;;7.63;1.80;;;8.00;99.90;;;;;;5094333;28;20039;-79
2021/12/19 07:43:10;;;;;;;12.93;2.20;;;6.80;99.90;;;;;;5076369;28;20075;-79
2021/12/19 07:45:37;;;;;;;7.10;1.98;;;6.70;99.90;;;;;;5076602;28;20040;-82
2021/12/19 07:48:04;;;;;;;10.38;3.08;;;8.20;99.90;;;;;;5094374;28;20046;-81
2021/12/19 07:50:30;;;;;;;10.38;2.05;;;6.70;99.90;;;;;;5094275;28;20054;-80
2021/12/19 07:52:56;;;;;;;;;;;6.70;99.90;;;;;;5094553;28;20467;-79
2021/12/19 07:55:23;;;;;;;11.32;2.83;;;7.10;99.90;;;;;;5094057;28;19967;-80
2021/12/19 07:57:49;;;;;;;10.90;2.55;;;6.70;99.90;;;;;;5075994;28;20048;-79
2021/12/19 08:00:16;;;;;;;12.48;2.55;;;6.70;99.90;;;;;;5076023;28;20055;-80
2021/12/19 08:02:45;;;;;;;10.35;2.40;;;7.90;99.90;;;;;;5093923;28;20123;-80
2021/12/19 08:05:11;;;;;;;7.70;3.35;;;7.90;99.90;;;;;;5093984;28;20047;-80
2021/12/19 08:07:39;;;;;;;11.95;4.30;;;8.30;99.90;;;;;;5093851;28;20040;-79
2021/12/19 08:12:44;;;;;;;12.40;3.60;;;6.80;99.90;;;;;;5093628;28;20040;-82
2021/12/19 08:15:11;;;;;;;17.27;2.78;;;8.20;99.90;;;;;;5075566;28;20059;-80
2021/12/19 08:17:37;;;;;;;9.77;3.80;;;6.70;99.90;;;;;;5093790;28;20052;-78
2021/12/19 08:20:06;;;;;;;7.10;2.97;;;6.80;99.90;;;;;;5093750;28;20051;-79
2021/12/19 08:22:33;;;;;;;12.25;3.35;;;6.80;99.90;;;;;;5093478;28;20085;-79
2021/12/19 08:24:58;;;;;;;19.05;3.50;;;7.80;99.90;;;;;;5075552;28;20040;-80
2021/12/19 08:27:25;;;;;;;15.68;3.55;;;8.60;99.90;;;;;;5093707;28;20046;-80
2021/12/19 08:29:55;;;;;;;15.02;2.88;;;6.80;99.90;;;;;;5093669;28;20148;-80
2021/12/19 08:32:22;;;;;;;8.60;2.63;;;8.40;99.90;;;;;;5093642;28;20410;-80
2021/12/19 08:34:47;;;;;;;10.80;3.22;;;7.10;99.90;;;;;;5093299;28;20163;-79
2021/12/19 08:37:15;;;;;;;8.48;2.85;;;7.30;99.90;;;;;;5093363;28;20132;-80
2021/12/19 08:39:45;;;;;;;15.18;3.28;;;7.60;99.90;;;;;;5093352;28;20047;-79
2021/12/19 08:42:11;;;;;;;11.98;2.72;;;6.80;99.90;;;;;;5075240;28;20048;-81
2021/12/19 08:44:38;;;;;;;8.80;3.53;;;8.30;99.90;;;;;;5093610;28;20058;-79
2021/12/19 08:47:04;;;;;;;14.00;2.75;;;6.90;99.90;;;;;;5075442;28;20048;-82
2021/12/19 08:49:30;;;;;;;12.95;2.58;;;6.90;99.90;;;;;;5093382;28;20050;-79
2021/12/19 08:51:56;;;;;;;7.60;2.20;;;6.90;99.90;;;;;;5093203;28;20390;-79
2021/12/19 08:54:22;;;;;;;13.60;2.50;;;6.90;99.90;;;;;;5093117;28;20040;-82
2021/12/19 08:56:51;;;;;;;;;;;6.90;99.90;;;;;;5093786;28;20475;-80
2021/12/19 08:59:17;;;;;;;10.15;2.17;;;6.90;99.90;;;;;;5093348;28;20389;-79
2021/12/19 09:01:43;;;;;;;12.48;2.50;;;6.90;99.90;;;;;;5093223;28;20032;-80
2021/12/19 09:04:08;;;;;;;10.13;2.60;;;6.90;99.90;;;;;;5093252;28;20059;-79
2021/12/19 09:06:35;;;;;;;9.38;2.10;;;8.10;99.90;;;;;;5093137;28;20040;-79
2021/12/19 09:09:03;;;;;;;14.18;2.40;;;6.90;99.90;;;;;;5093105;28;20044;-81
2021/12/19 09:11:28;;;;;;;6.47;2.05;;;8.20;99.90;;;;;;5092981;28;20085;-78
2021/12/19 09:13:54;;;;;;;12.85;2.47;;;7.00;99.90;;;;;;5092913;28;20052;-79
2021/12/19 09:16:20;;;;;;;13.05;3.25;;;7.50;99.90;;;;;;5093126;28;20052;-80
2021/12/19 09:18:46;;;;;;;8.05;1.83;;;6.90;99.90;;;;;;5093190;28;20051;-80
2021/12/19 09:21:12;;;;;;;12.02;3.05;;;8.40;99.90;;;;;;5092961;28;20036;-82
2021/12/19 09:23:38;;;;;;;8.95;2.70;;;6.90;99.90;;;;;;5074591;28;20060;-79
2021/12/19 09:26:05;;;;;;;15.70;2.58;;;7.00;99.90;;;;;;5092886;28;20044;-79
2021/12/19 09:28:31;;;;;;;13.18;2.55;;;7.00;99.90;;;;;;5092917;28;20060;-79
2021/12/19 09:30:56;;;;;;;11.32;2.95;;;7.00;99.90;;;;;;5093064;28;20056;-82
2021/12/19 09:33:22;;;;;;;10.95;3.30;;;7.00;99.90;;;;;;5057606;28;20078;-81
2021/12/19 09:35:49;;;;;;;11.68;3.40;;;7.00;99.90;;;;;;5108691;28;20098;-83
2021/12/19 09:38:15;;;;;;;11.35;2.78;;;7.00;99.90;;;;;;5074873;28;20040;-82
2021/12/19 09:40:43;;;;;;;9.07;3.60;;;7.00;99.90;;;;;;5092656;28;20122;-80
2021/12/19 09:43:41;;;;;;;10.38;2.42;;;7.00;99.90;;;;;;5074872;28;20058;-80
2021/12/19 09:46:00;;;;;;;9.50;2.72;;;7.00;99.90;;;;;;5092546;28;20063;-80
2021/12/19 09:48:27;;;;;;;10.77;2.80;;;8.20;99.90;;;;;;5077596;28;20090;-82
2021/12/19 09:50:54;;;;;;;19.88;4.57;;;8.60;99.90;;;;;;5096362;28;20044;-82
2021/12/19 09:53:20;;;;;;;10.00;2.85;;;7.30;99.90;;;;;;5096315;28;20083;-81
2021/12/19 09:55:45;;;;;;;12.73;3.47;;;7.40;99.90;;;;;;5078340;28;20451;-80
2021/12/19 09:58:11;;;;;;;10.73;2.90;;;7.10;99.90;;;;;;5078004;28;20056;-80
2021/12/19 10:00:37;;;;;;;20.33;4.13;;;8.00;99.90;;;;;;5078207;28;20052;-80
2021/12/19 10:03:03;;;;;;;10.30;3.13;;;7.10;99.90;;;;;;5096307;28;20048;-81
2021/12/19 10:05:29;;;;;;;13.50;2.95;;;7.10;99.90;;;;;;5078178;28;20043;-79
2021/12/19 10:07:58;;;;;;;8.68;2.80;;;7.10;99.90;;;;;;5095759;28;20048;-79
2021/12/19 10:10:57;;;;;;;13.80;3.40;;;7.10;99.90;;;;;;5095961;28;20048;-79
2021/12/19 10:13:34;;;;;;;10.23;4.00;;;8.40;99.90;;;;;;5013574;28;20054;-80
2021/12/19 10:16:00;;;;;;;;;;;7.30;99.90;;;;;;5014290;28;20062;-79
2021/12/19 10:18:26;;;;;;;12.88;3.33;;;7.20;99.90;;;;;;5013772;28;19928;-81
2021/12/19 10:20:57;;;;;;;10.95;3.47;;;7.40;99.90;;;;;;4997114;28;20164;-82
2021/12/19 10:23:26;;;;;;;14.27;3.03;;;8.60;99.90;;;;;;5013664;28;20145;-80
2021/12/19 10:26:07;;;;;;;9.85;2.65;;;7.60;99.90;;;;;;4997479;28;20053;-82
2021/12/19 10:28:47;;;;;;;11.07;3.58;;;7.10;99.90;;;;;;5013615;28;20091;-82
2021/12/19 10:31:14;;;;;;;12.93;2.92;;;8.50;99.90;;;;;;5013443;28;20060;-79
2021/12/19 10:33:39;;;;;;;;;;;7.20;99.90;;;;;;5013983;28;20105;-81
2021/12/19 10:36:06;;;;;;;10.38;2.28;;;7.20;99.90;;;;;;5013494;28;20010;-79
2021/12/19 10:38:34;;;;;;;11.70;2.20;;;7.20;99.90;;;;;;5013443;28;20046;-79
2021/12/19 10:41:11;;;;;;;10.40;3.05;;;7.30;99.90;;;;;;5013374;28;20561;-79
2021/12/19 10:43:59;;;;;;;8.70;2.40;;;7.20;99.90;;;;;;5013358;28;20064;-81
2021/12/19 10:46:29;;;;;;;10.30;2.25;;;7.20;99.90;;;;;;4996995;28;20089;-82
2021/12/19 10:48:56;;;;;;;11.90;2.75;;;7.20;99.90;;;;;;5028532;28;20048;-79
2021/12/19 10:51:21;;;;;;;7.90;2.47;;;7.30;99.90;;;;;;5077266;28;20044;-80
2021/12/19 10:53:49;;;;;;;7.90;2.10;;;8.50;99.90;;;;;;5095349;28;20127;-80
2021/12/19 10:56:21;;;;;;;13.80;2.55;;;7.30;99.90;;;;;;5095314;28;20052;-82
2021/12/19 10:58:55;;;;;;;11.35;2.70;;;7.30;99.90;;;;;;5095304;28;20444;-81
2021/12/19 11:01:29;;;;;;;11.82;2.25;;;8.70;99.90;;;;;;5095198;28;20123;-80
2021/12/19 11:03:59;;;;;;;12.65;2.95;;;7.30;99.90;;;;;;5095212;28;20048;-80
2021/12/19 11:06:35;;;;;;;13.35;2.65;;;7.30;99.90;;;;;;5094971;28;20048;-82
2021/12/19 11:09:07;;;;;;;11.07;2.35;;;7.30;99.90;;;;;;5094905;28;20069;-82
2021/12/19 11:11:47;;;;;;;8.82;2.20;;;7.40;99.90;;;;;;5094850;28;20506;-80
2021/12/19 11:14:26;;;;;;;11.50;2.28;;;7.40;99.90;;;;;;5094697;28;20063;-82
2021/12/19 11:17:06;;;;;;;6.22;2.03;;;7.30;99.90;;;;;;5094861;28;20468;-80
2021/12/19 11:19:32;;;;;;;10.23;2.63;;;8.60;99.90;;;;;;5094661;28;20052;-79
2021/12/19 11:21:58;;;;;;;17.15;3.72;;;7.40;99.90;;;;;;5094834;28;20048;-82
2021/12/19 11:24:25;;;;;;;11.13;2.88;;;7.40;99.90;;;;;;5094797;28;20047;-80
2021/12/19 11:26:57;;;;;;;16.15;2.90;;;7.40;99.90;;;;;;5094643;28;20044;-80
2021/12/19 11:29:23;;;;;;;8.23;1.92;;;7.40;99.90;;;;;;5076629;28;20105;-81
2021/12/19 11:31:52;;;;;;;14.45;2.90;;;8.80;99.90;;;;;;5076529;28;20048;-78
2021/12/19 11:34:49;;;;;;;11.27;3.45;;;8.70;99.90;;;;;;5094404;28;20081;-79
2021/12/19 11:37:18;;;;;;;14.13;2.40;;;7.50;99.90;;;;;;5094423;28;20044;-79
2021/12/19 11:39:51;;;;;;;8.88;2.70;;;8.60;99.90;;;;;;5094426;28;20452;-80
2021/12/19 11:42:19;;;;;;;15.18;2.90;;;7.50;99.90;;;;;;5094272;28;20036;-80
2021/12/19 11:47:36;;;;;;;12.77;3.17;;;7.40;99.90;;;;;;5094121;28;20518;-82
2021/12/19 11:50:26;;;;;;;12.02;3.33;;;7.50;99.90;;;;;;5094325;28;20051;-81
2021/12/19 11:53:03;;;;;;;15.82;3.53;;;7.50;99.90;;;;;;5093973;28;20044;-79
2021/12/19 11:55:43;;;;;;;15.23;3.08;;;7.50;99.90;;;;;;5094007;28;20073;-79
2021/12/19 11:58:09;;;;;;;12.30;2.78;;;7.50;99.90;;;;;;5094184;28;20122;-80
2021/12/19 12:00:37;;;;;;;13.68;3.58;;;9.20;99.90;;;;;;5094132;28;20147;-79
2021/12/19 12:03:50;;;;;;;9.80;2.60;;;7.50;99.90;;;;;;5075899;28;20043;-79
2021/12/19 12:06:21;;;;;;;14.93;3.33;;;7.50;99.90;;;;;;5011587;28;20061;-80
2021/12/19 12:09:06;;;;;;;13.20;3.63;;;7.50;99.90;;;;;;5011867;28;20052;-79
2021/12/19 12:11:33;;;;;;;8.13;2.33;;;8.20;99.90;;;;;;4994875;28;20140;-82
2021/12/19 12:14:31;;;;;;;10.82;2.60;;;7.50;99.90;;;;;;5011373;28;20529;-80
2021/12/19 12:17:05;;;;;;;9.35;2.80;;;7.50;99.90;;;;;;5010900;28;20058;-79
2021/12/19 12:19:38;;;;;;;6.57;1.55;;;7.60;99.90;;;;;;5011706;28;20560;-81
2021/12/19 12:22:43;;;;;;;9.10;2.97;;;7.60;99.90;;;;;;4995025;28;20076;-79
2021/12/19 12:25:20;;;;;;;8.13;2.70;;;8.40;99.90;;;;;;4953244;29;20468;-80
2021/12/19 12:27:54;;;;;;;15.77;2.60;;;7.60;99.90;;;;;;4953167;29;20047;-80
2021/12/19 12:30:24;;;;;;;13.30;2.00;;;7.60;99.90;;;;;;4953194;29;20142;-81
2021/12/19 12:32:50;;;;;;;11.55;2.63;;;9.20;99.90;;;;;;4953297;29;20043;-79
2021/12/19 12:35:18;;;;;;;9.85;1.77;;;8.70;99.90;;;;;;4953096;29;20137;-79
2021/12/19 12:37:45;;;;;;;11.02;2.03;;;7.50;99.90;;;;;;4953051;29;20161;-80
2021/12/19 12:40:16;;;;;;;;;;;8.80;99.90;;;;;;4937789;29;20051;-79
2021/12/19 12:43:05;;;;;;;12.13;2.97;;;7.60;99.90;;;;;;4981120;28;20022;-82
2021/12/19 12:46:03;;;;;;;4.40;1.30;;;7.50;99.90;;;;;;5014853;28;20053;-80
2021/12/19 12:48:33;;;;;;;5.45;1.25;;;7.60;99.90;;;;;;5031052;28;20053;-78
2021/12/19 12:51:02;;;;;;;10.52;2.05;;;7.90;99.90;;;;;;5030999;28;20050;-82
2021/12/19 12:53:31;;;;;;;5.47;1.42;;;8.70;99.90;;;;;;5031007;28;20041;-80
2021/12/19 12:56:11;;;;;;;8.90;2.13;;;7.60;99.90;;;;;;5030822;28;20065;-79
2021/12/19 12:58:40;;;;;;;5.40;1.55;;;7.50;99.90;;;;;;5030644;28;20099;-79
2021/12/19 13:01:19;;;;;;;8.25;1.70;;;7.60;99.90;;;;;;5022348;28;20522;-81
2021/12/19 13:03:54;;;;;;;10.98;1.77;;;7.60;99.90;;;;;;5072977;28;20052;-82
2021/12/19 13:06:41;;;;;;;12.05;2.42;;;8.90;99.90;;;;;;5072936;28;20056;-80
2021/12/19 13:09:17;;;;;;;9.05;1.92;;;7.60;99.90;;;;;;5073123;28;20484;-80
2021/12/19 13:11:45;;;;;;;10.35;2.67;;;7.60;99.90;;;;;;5073034;28;20518;-82
2021/12/19 13:14:22;;;;;;;11.18;1.58;;;7.60;99.90;;;;;;5077959;28;20060;-80
2021/12/19 13:16:54;;;;;;;6.72;1.83;;;7.60;99.90;;;;;;5093023;28;20056;-80
2021/12/19 13:19:40;;;;;;;5.13;1.73;;;7.60;99.90;;;;;;5092977;28;20560;-80
2021/12/19 13:22:26;;;;;;;8.57;2.38;;;8.90;99.90;;;;;;5093833;28;20040;-79
2021/12/19 13:24:56;;;;;;;7.78;1.92;;;7.60;99.90;;;;;;5097046;28;20048;-80
2021/12/19 13:27:28;;;;;;;9.00;1.52;;;7.60;99.90;;;;;;5097196;28;20517;-80
2021/12/19 13:30:01;;;;;;;6.07;1.98;;;8.90;99.90;;;;;;5096759;28;20384;-80
2021/12/19 13:32:29;;;;;;;4.90;1.50;;;7.60;99.90;;;;;;5096789;28;20493;-79
2021/12/19 13:34:56;;;;;;;13.27;2.13;;;8.20;99.90;;;;;;5096893;28;20467;-79
2021/12/19 13:37:22;;;;;;;13.02;2.25;;;7.80;99.90;;;;;;5078909;28;20086;-80
2021/12/19 13:40:12;;;;;;;13.10;2.85;;;7.70;99.90;;;;;;5096773;28;20181;-82
2021/12/19 13:42:47;;;;;;;10.65;2.13;;;7.70;99.90;;;;;;5096713;28;20075;-80
2021/12/19 13:45:25;;;;;;;10.63;2.15;;;7.70;99.90;;;;;;5078854;28;20044;-79
2021/12/19 13:47:52;;;;;;;10.70;2.67;;;7.70;99.90;;;;;;5096570;28;20052;-81
2021/12/19 13:50:18;;;;;;;8.93;2.33;;;7.70;99.90;;;;;;5078654;28;20044;-80
2021/12/19 13:52:44;;;;;;;9.45;2.03;;;7.70;99.90;;;;;;5096343;28;20103;-83
2021/12/19 13:55:12;;;;;;;16.25;2.75;;;7.70;99.90;;;;;;5078508;28;20048;-82
2021/12/19 13:57:38;;;;;;;9.48;2.20;;;7.70;99.90;;;;;;5096484;28;20051;-79
2021/12/19 14:00:06;;;;;;;14.55;2.30;;;7.70;99.90;;;;;;5096381;28;20044;-80
2021/12/19 14:02:39;;;;;;;15.50;2.58;;;7.70;99.90;;;;;;5078236;28;20048;-79
2021/12/19 14:05:29;;;;;;;13.43;2.38;;;7.80;99.90;;;;;;5096185;28;20133;-79
2021/12/19 14:07:55;;;;;;;7.35;2.58;;;7.70;99.90;;;;;;5096248;28;20056;-82
2021/12/19 14:10:22;;;;;;;11.60;2.50;;;8.60;99.90;;;;;;5096313;28;20052;-80